CST,Max TemperatureF,Mean TemperatureF,Min TemperatureF,Max Dew PointF,MeanDew PointF,Min DewpointF,Max Humidity, Mean Humidity, Min Humidity, Max Sea Level PressureIn, Mean Sea Level PressureIn, Min Sea Level PressureIn, Max VisibilityMiles, Mean VisibilityMiles, Min VisibilityMiles, Max Wind SpeedMPH, Mean Wind SpeedMPH, Max Gust SpeedMPH,PrecipitationIn, CloudCover, Events, WindDirDegrees
2012-12-1,69,60,51,57,55,48,88,74,60,30.07,29.97,29.89,10,9,4,23,10,32,0.00,4,,183
2012-12-2,75,68,62,61,57,55,83,70,50,30.06,30.00,29.96,10,10,10,17,11,23,0.00,3,,199
2012-12-3,73,68,62,57,55,52,77,66,47,29.98,29.93,29.86,10,10,10,22,13,38,0.00,2,,187
2012-12-4,64,53,42,57,41,30,94,63,36,30.31,30.17,29.96,10,10,4,17,9,22,1.24,3,Thunderstorm,13
2012-12-5,60,46,33,36,30,27,87,55,29,30.31,30.21,30.07,10,10,10,16,5,20,0.00,0,,107
2012-12-6,64,50,37,46,40,30,87,67,42,30.06,29.93,29.84,10,10,10,10,5,,0.00,0,,155
2012-12-7,57,52,46,52,48,43,93,84,72,29.89,29.85,29.80,10,8,3,7,2,,0.00,8,,175
2012-12-8,57,52,48,50,48,46,94,82,72,29.92,29.86,29.81,10,6,1,9,4,,0.00,8,,65
2012-12-9,53,42,30,50,41,18,94,79,56,30.01,29.85,29.75,10,7,2,16,6,24,0.25,7,Thunderstorm,359
2012-12-10,33,26,19,19,16,12,86,65,52,30.07,30.03,29.97,10,10,10,16,9,20,0.00,3,,321
2012-12-11,46,32,17,18,15,12,93,57,29,30.20,30.11,30.05,10,10,10,12,3,,0.00,0,,203
2012-12-12,51,37,23,19,14,10,74,45,20,30.28,30.22,30.19,10,10,10,14,5,20,0.00,0,,173
2012-12-13,57,44,30,23,19,16,55,40,25,30.25,30.20,30.14,10,10,10,17,7,23,0.00,0,,179
2012-12-14,55,45,35,45,27,19,81,51,26,30.16,30.04,29.79,10,10,9,18,7,25,0.11,4,,164
2012-12-15,60,53,46,46,39,34,87,61,42,29.79,29.74,29.69,10,10,9,21,14,28,0.07,1,,209
2012-12-16,64,53,42,36,34,30,76,52,34,29.74,29.69,29.62,10,10,10,15,6,20,0.00,0,,239
2012-12-17,44,38,33,37,34,28,93,83,66,29.81,29.76,29.69,10,6,0,10,5,,0.00,4,,287
2012-12-18,60,48,35,36,32,30,81,60,36,29.83,29.78,29.74,10,10,9,17,6,20,0.00,0,,206
2012-12-19,64,50,37,57,45,32,82,70,58,29.83,29.67,29.44,10,10,10,17,8,28,0.02,3,Thunderstorm,145
2012-12-20,55,42,30,45,22,12,87,57,44,30.27,29.95,29.45,10,10,5,30,20,43,0.00,3,,293
2012-12-21,50,36,21,19,16,12,74,50,26,30.36,30.29,30.24,10,10,10,7,4,,0.00,0,,194
2012-12-22,60,44,28,28,19,16,69,39,17,30.24,30.11,29.98,10,10,10,18,8,25,0.00,0,,190
2012-12-23,60,51,39,46,40,30,81,64,50,29.97,29.87,29.80,10,10,7,13,7,,0.00,2,,221
2012-12-24,41,34,26,30,24,21,86,71,53,30.01,29.94,29.84,10,8,4,12,7,,0.00,0,,12
2012-12-25,30,27,24,21,19,16,74,69,60,30.00,29.94,29.89,10,8,5,23,14,36,0.00,5,,40
2012-12-26,33,26,19,18,16,12,74,68,52,30.16,30.10,29.99,10,10,10,20,11,26,0.00,3,,5
2012-12-27,41,32,24,27,20,18,75,63,42,30.07,29.99,29.91,10,10,10,13,8,18,0.00,1,,143
2012-12-28,37,30,24,30,26,16,87,78,69,30.05,29.95,29.88,10,8,1,14,6,18,0.03,7,,306
2012-12-29,33,25,17,19,15,10,86,72,52,30.38,30.24,30.05,10,9,6,12,8,16,0.00,2,,282
2012-12-30,41,29,17,23,17,10,86,61,39,30.40,30.32,30.19,10,10,10,14,6,18,0.00,0,,175
2012-12-31,37,35,33,36,32,21,93,87,52,30.20,30.07,29.96,10,5,0,13,7,,0.81,8,,165